KJES

Jesup-Wayne County Airport

Jesup, Georgia, USA
METAR KJES 230500Z AUTO 00000KT 7SM CLR 23/21 A3009 RMK AO2
Observed Flight Rules
May-23 @ 05:00 UTC (4 hours ago) Visual Flight Rules
Visibility Clouds
7 miles
  • Clear skies
Temperatures Readings
Current 23°C / 73°F
Dewpoint 21°C / 70°F
Humidity 89%
Altimeter 30.09" Hg
Pressure 1019 hPa
Elevation 33
METAR KJES 230500Z AUTO 00000KT 7SM CLR 23/21 A3009 RMK AO2
Observed Flight Rules
May-23 @ 05:00 UTC
(4 hours ago)
VFR
Clouds
  • Clear skies
Temperature Dewpoint
23°C / 73°F 21°C / 70°F
Humidity Altimeter Pressure
89% 30.09" Hg 1019 hPa